KRBW

Details ICAO KRBW
Name LOWCOUNTRY RGNL
Region United States
Timezone America/New_York (UTC-4.0)
Plans Departing 0
Arriving 1
Stats Elevation 101 ft / 31 m (AMSL)
Location 32.920998° -80.640636°
Runways 3
Magnetic Variation 7.541° W
Sunrise 2018-05-20 10:21:37 UTC / 2018-05-20 06:21:37 Local
Sunset 2018-05-21 00:19:26 UTC / 2018-05-20 20:19:26 Local
Advertisement - Login to hide

Runways

ID Width Length Bearing (true) Bearing (mag) Surface Threshold Offset Overrun Length
05 100 ft / 30 m 6,006 ft / 1,831 m 43.91° 51.45° Asphalt 0 ft / 0 m 0 ft / 0 m
09 150 ft / 46 m 5,399 ft / 1,646 m 88.57° 96.11° Asphalt 0 ft / 0 m 0 ft / 0 m
17 100 ft / 30 m 5,720 ft / 1,743 m 165.68° 173.22° Asphalt 0 ft / 0 m 0 ft / 0 m
23 100 ft / 30 m 6,006 ft / 1,831 m 223.92° 231.46° Asphalt 0 ft / 0 m 0 ft / 0 m
27 150 ft / 46 m 5,399 ft / 1,646 m 268.58° 276.12° Asphalt 0 ft / 0 m 0 ft / 0 m
35 100 ft / 30 m 5,720 ft / 1,743 m 345.68° 353.22° Asphalt 0 ft / 0 m 0 ft / 0 m

Map

Weather


0- 5 10 15 20 25 30 35+ Temperature / ° C

Clouds and Precipitation
Forecast for 2018-05-20 12:00 UTC. Updated an hour ago

Ground ~20,000 ft ~40,000 ft Winds

METAR

KRBW 201235Z AUTO 00000KT 10SM CLR 23/22 A3016 RMK AO2

TAF

Not found

Frequencies

Recorded 118.72 MHz AWOS 3
Approach 120.70 MHz CHARLESTON APP/DEP
Unicom 122.80 MHz CTAF/UNICOM
Warning: Do not use this data for real-world aviation or navigation. No guarantee of current accuracy is given.